Jacksonville, NC

02:53 PM EDT am 29. August 2015 (GMT -0400)
West Jacksonville Northwoods | | Change Station
CLOSE
Current Station
Persönliche Wetterstationen
Location: Jacksonville, NC
Höhe: 21 ft
Wetterstationen in der Umgebung

Höhe 21 ft 34.77 °N, 77.44 °W | Updated 2 seconds ago

Teils Wolkig
Teils Wolkig
83.5 °F
gefühlte 85 °F
N
4.7
Wind Wechselnd Wind aus Nordwest
Gusts 7.8 mph

Heute
Max. -- | schwach -- °F
--% Regenrisiko
Gestern
Max. -- | schwach -- °F
Precip. -- inch
6:40 AM 7:40 PM
Vollmond, 100% visible
Druck 30.17 inch
Sichtweite 10.0 Meilen
Wolken Few 4100 ft
Teils Wolkig 5000 ft
Hitzeindex 85 °F
Taupunkt 64 °F
Feuchtigkeit 51%
Regen inch
Schneehöhe Nicht verfügbar..
UV 8 von 12
Pollen 7.90 von 12
Luftqualität Nicht verfügbar..
Flu Activity Nicht verfügbar..
METAR KNCA 291756Z AUTO 35010G15KT 10SM FEW041 SCT050 29/17 A3016 RMK AO2 SLP214 T02940172 10294 20206 58008
Druck 30.17 inch
Sichtweite 10.0 Meilen
Wolken Few 4100 ft
Teils Wolkig 5000 ft
Hitzeindex 85 °F
Taupunkt 64 °F
Feuchtigkeit 51%
Regen inch
Schneehöhe Nicht verfügbar..
UV 8 von 12
Pollen 7.90 von 12
Luftqualität Nicht verfügbar..
Flu Activity Nicht verfügbar..
METAR KNCA 291756Z AUTO 35010G15KT 10SM FEW041 SCT050 29/17 A3016 RMK AO2 SLP214 T02940172 10294 20206 58008

10-Day Weather Forecast

×

Almanac

Astronomie

Aug. 29, 2015 Aufgang Untergang
Genaue Zeit
Bürgerliche Dämmerung
Nautische Dämmerung
Astronomische Dämmerung
Mond
Länge des sichtbaren Lichts
Tageslänge
Tomorrow will be .
, % of the Moon is Illuminated

Heutige Rekorde

State Highs State Lows

Community

WunderPhotos

Upload Photos

1,850,764 Fotos hochgeladen!

WunderBlogs® & News

Nearby

Luftqualität

  Luftqualität LQ Index Schadstoff
Not available.

Schneehöhe

Station Depth Höhe

Erdbebenaktivität

Stadt Distance Mag. Time & Date
Minimum magnitude displayed is 2.5.

küstennahe Wassertemperaturen

Ort Temperatur

Stations

Wetterstationen in der Umgebung

Stationsstandort Temp. Windchill Taupunkt Feuchtigkeit Wind Precip. Höhe Aktualisiert Art